Terminal Aerodrome Forecast
Issued by NWS

Home | Current Version | Previous Version | Text Only | Print | Product List | Glossary On
Versions: 1 2 3 4 5 6 7 8 9 10 11 12 13 14 15 16 17 18 19 20 21 22 23 24 25 26
000
FTUS41 KCTP 231740
TAFAOO
TAF
KAOO 231740Z 2318/2418 16015G21KT P6SM FEW022 SCT030 BKN040
     FM232300 15015KT P6SM OVC025 WS020/16040KT
      TEMPO 2400/2404 P6SM -RA OVC025
     FM240400 18016KT 5SM -SHRA OVC015
     FM241100 24006KT P6SM VCSH OVC015
     FM241400 21004KT P6SM OVC050=

USA.gov is the U.S. government's official web portal to all federal, state and local government web resources and services.